This is the latest recevied weather packets stored in our database for station/object K8FJG-13. If no packets are shown the sender has not sent any weather packets the latest 10 day(s).
| Time | Temp. | Humidity | Pressure | Rain* | Wind** | Luminosity | Snow |
|---|---|---|---|---|---|---|---|
| 1777398379 | 20.56° C | 67% | 967.4 hPa | - | - | - | - |
| 1777397776 | 20.56° C | 68% | 967.4 hPa | - | - | - | - |
| 1777397173 | 20.56° C | 68% | 967.4 hPa | - | - | - | - |
| 1777396570 | 20° C | 71% | 967.4 hPa | - | - | - | - |
| 1777395967 | 20° C | 72% | 967.3 hPa | - | - | - | - |
| 1777395364 | 18.89° C | 73% | 967.4 hPa | - | - | - | - |
| 1777394761 | 17.78° C | 77% | 967.4 hPa | - | - | - | - |
| 1777394157 | 17.78° C | 76% | 967.5 hPa | - | - | - | - |
| 1777393554 | 17.78° C | 77% | 967.6 hPa | - | - | - | - |
| 1777392951 | 17.22° C | 78% | 967.4 hPa | - | - | - | - |
| 1777392348 | 17.78° C | 77% | 967.4 hPa | - | - | - | - |
| 1777391744 | 16.67° C | 79% | 967.5 hPa | - | - | - | - |
| 1777391141 | 16.11° C | 81% | 967.5 hPa | - | - | - | - |
| 1777390538 | 15.56° C | 82% | 967.4 hPa | - | - | - | - |
| 1777389935 | 15° C | 82% | 967.5 hPa | - | - | - | - |
| 1777389332 | 15° C | 82% | 967.4 hPa | - | - | - | - |
| 1777388729 | 15° C | 81% | 967.5 hPa | - | - | - | - |
| 1777388125 | 15° C | 81% | 967.3 hPa | - | - | - | - |
| 1777387522 | 14.44° C | 82% | 967.2 hPa | - | - | - | - |
| 1777386919 | 14.44° C | 83% | 967.1 hPa | - | - | - | - |
| 1777386316 | 14.44° C | 82% | 967.1 hPa | - | - | - | - |
| 1777385713 | 14.44° C | 82% | 967.2 hPa | - | - | - | - |
| 1777385110 | 14.44° C | 83% | 967.1 hPa | - | - | - | - |
| 1777384507 | 14.44° C | 83% | 966.9 hPa | - | - | - | - |
| 1777383903 | 14.44° C | 83% | 967 hPa | - | - | - | - |
* Rain since midnight (hover to see other rain measurements)
** Current wind speed in m/s (hover to see current wind gust speed)